Terminal Aerodrome Forecast
Issued by NWS Austin/San Antonio, TX

Home | Current Version | Previous Version | Text Only | Print | Product List | Glossary On
Versions: 1 2 3 4 5 6 7 8 9 10 11 12 13 14 15 16 17 18 19 20 21 22 23 24 25 26 27 28 29 30
330
FTUS44 KEWX 170729 AAA
TAFAUS
TAF AMD
KAUS 170729Z 1707/1812 03007KT P6SM -RA BKN007 OVC012
     FM171300 03013KT 5SM -DZ BR OVC008
     FM171900 01010KT 6SM -RA OVC015
     FM172300 01009KT P6SM -DZ OVC007
     FM180500 01009KT 3SM RA BR OVC004=

USA.gov is the U.S. government's official web portal to all federal, state and local government web resources and services.